createdAt,value
2022-12-26T00:00:50.249Z,7.8
2022-12-26T00:02:50.196Z,7.9
2022-12-26T00:04:53.425Z,7.6
2022-12-26T00:06:49.589Z,6.0
2022-12-26T00:08:50.202Z,7.8
2022-12-26T00:10:50.136Z,7.8
2022-12-26T00:12:49.645Z,5.5
2022-12-26T00:14:50.250Z,5.3
2022-12-26T00:16:50.540Z,5.3
2022-12-26T00:18:49.682Z,5.3
2022-12-26T00:20:50.493Z,5.3
2022-12-26T00:22:50.284Z,5.3
2022-12-26T00:24:49.733Z,5.5
2022-12-26T00:26:49.775Z,4.8
2022-12-26T00:28:50.539Z,5.6
2022-12-26T00:30:50.188Z,5.6
2022-12-26T00:32:49.997Z,5.3
2022-12-26T00:34:50.178Z,5.0
2022-12-26T00:36:50.206Z,5.0
2022-12-26T00:38:50.031Z,5.0
2022-12-26T00:40:49.839Z,5.0
2022-12-26T00:42:49.656Z,6.2
2022-12-26T00:44:50.468Z,4.7
2022-12-26T00:46:49.771Z,4.3
2022-12-26T00:48:49.767Z,4.3
2022-12-26T00:50:49.721Z,4.5
2022-12-26T00:52:50.508Z,4.8
2022-12-26T00:54:50.136Z,5.4
2022-12-26T00:56:50.172Z,5.4
2022-12-26T00:58:49.974Z,5.4
2022-12-26T01:00:49.633Z,5.4
2022-12-26T01:02:49.676Z,4.7
2022-12-26T01:04:49.810Z,4.6
2022-12-26T01:06:49.880Z,4.3
2022-12-26T01:08:49.652Z,4.3
2022-12-26T01:10:50.245Z,4.9
2022-12-26T01:12:50.078Z,4.9
2022-12-26T01:16:49.993Z,5.4
2022-12-26T01:18:50.124Z,4.3
2022-12-26T01:20:49.755Z,4.1
2022-12-26T01:22:50.317Z,5.9
2022-12-26T01:24:49.811Z,4.6
2022-12-26T01:26:50.005Z,4.2
2022-12-26T01:28:49.813Z,4.2
2022-12-26T01:30:49.850Z,6.6
2022-12-26T01:32:50.061Z,4.3
2022-12-26T01:34:50.471Z,4.0
2022-12-26T01:36:49.675Z,4.2
2022-12-26T01:38:50.453Z,4.2
2022-12-26T01:40:50.266Z,4.0
2022-12-26T01:42:50.154Z,4.4
2022-12-26T01:44:49.908Z,4.0
2022-12-26T01:46:49.918Z,4.0
2022-12-26T01:48:49.738Z,3.9
2022-12-26T01:50:50.344Z,4.0
2022-12-26T01:52:50.181Z,3.9
2022-12-26T01:54:49.999Z,5.1
2022-12-26T01:56:50.045Z,5.1
2022-12-26T01:58:49.845Z,4.3
2022-12-26T02:00:50.495Z,6.9
2022-12-26T02:02:49.744Z,6.9
2022-12-26T02:04:50.044Z,4.0
2022-12-26T02:06:50.071Z,4.4
2022-12-26T02:08:49.908Z,4.3
2022-12-26T02:10:49.714Z,5.1
2022-12-26T02:12:50.115Z,5.2
2022-12-26T02:14:49.713Z,4.0
2022-12-26T02:16:49.970Z,4.0
2022-12-26T02:18:49.958Z,4.0
2022-12-26T02:20:49.580Z,4.0
2022-12-26T02:22:50.341Z,4.0
2022-12-26T02:24:49.995Z,3.8
2022-12-26T02:26:50.049Z,3.8
2022-12-26T02:28:49.819Z,4.0
2022-12-26T02:30:49.640Z,3.7
2022-12-26T02:32:50.452Z,4.0
2022-12-26T02:34:49.686Z,4.0
2022-12-26T02:36:49.683Z,4.0
2022-12-26T02:38:50.289Z,3.6
2022-12-26T02:40:49.915Z,3.7
2022-12-26T02:42:49.917Z,3.7
2022-12-26T02:44:50.562Z,3.7
2022-12-26T02:46:50.539Z,3.8
2022-12-26T02:48:50.156Z,4.3
2022-12-26T02:50:49.784Z,4.3
2022-12-26T02:52:50.374Z,4.2
2022-12-26T02:54:50.029Z,4.2
2022-12-26T02:56:50.058Z,3.8
2022-12-26T02:58:49.646Z,4.0
2022-12-26T03:00:50.458Z,3.9
2022-12-26T03:02:50.607Z,4.4
2022-12-26T03:04:50.482Z,4.4
2022-12-26T03:06:50.508Z,4.0
2022-12-26T03:08:50.522Z,3.6
2022-12-26T03:10:50.119Z,4.0
2022-12-26T03:12:49.960Z,4.0
2022-12-26T03:14:49.544Z,3.8
2022-12-26T03:16:49.625Z,3.6
2022-12-26T03:18:57.232Z,4.1
2022-12-26T03:20:50.181Z,4.1
2022-12-26T03:22:49.836Z,3.7
2022-12-26T03:24:50.412Z,4.0
2022-12-26T03:26:50.503Z,3.6
2022-12-26T03:28:50.028Z,3.7
2022-12-26T03:30:50.041Z,3.7
2022-12-26T03:32:50.480Z,3.9
2022-12-26T03:34:49.716Z,3.7
2022-12-26T03:36:49.715Z,4.6
2022-12-26T03:38:50.303Z,4.1
2022-12-26T03:40:49.972Z,4.1
2022-12-26T03:42:49.795Z,4.1
2022-12-26T03:44:53.604Z,4.0
2022-12-26T03:46:50.215Z,4.0
2022-12-26T03:48:50.026Z,4.3
2022-12-26T03:50:49.820Z,4.3
2022-12-26T03:52:50.416Z,4.0
2022-12-26T03:54:50.033Z,4.1
2022-12-26T03:56:50.042Z,3.9
2022-12-26T03:58:49.667Z,4.1
2022-12-26T04:00:50.284Z,4.4
2022-12-26T04:02:49.911Z,4.4
2022-12-26T04:04:50.133Z,4.0
2022-12-26T04:06:50.128Z,3.9
2022-12-26T04:08:49.958Z,4.1
2022-12-26T04:10:49.798Z,4.1
2022-12-26T04:12:49.579Z,4.1
2022-12-26T04:14:50.377Z,4.1
2022-12-26T04:16:50.423Z,4.2
2022-12-26T04:18:50.241Z,4.2
2022-12-26T04:20:49.883Z,4.7
2022-12-26T04:22:50.444Z,4.2
2022-12-26T04:24:50.052Z,3.7
2022-12-26T04:26:50.102Z,3.9
2022-12-26T04:28:49.884Z,4.6
2022-12-26T04:30:49.707Z,4.6
2022-12-26T04:32:49.711Z,4.2
2022-12-26T04:34:49.935Z,3.9
2022-12-26T04:36:49.761Z,4.0
2022-12-26T04:38:49.542Z,4.0
2022-12-26T04:40:50.191Z,4.1
2022-12-26T04:42:50.038Z,4.0
2022-12-26T04:44:49.607Z,3.9
2022-12-26T04:46:50.443Z,3.9
2022-12-26T04:48:50.430Z,4.3
2022-12-26T04:50:50.070Z,4.0
2022-12-26T04:52:49.876Z,4.1
2022-12-26T04:54:51.741Z,4.3
2022-12-26T04:56:49.943Z,4.3
2022-12-26T04:58:50.506Z,4.1
2022-12-26T05:00:50.317Z,4.0
2022-12-26T05:02:50.296Z,4.1
2022-12-26T05:04:50.355Z,4.0
2022-12-26T05:06:50.385Z,4.2
2022-12-26T05:08:49.603Z,4.2
2022-12-26T05:10:50.377Z,3.9
2022-12-26T05:12:50.217Z,3.9
2022-12-26T05:14:49.823Z,3.7
2022-12-26T05:16:49.913Z,4.0
2022-12-26T05:18:49.650Z,4.0
2022-12-26T05:20:49.657Z,4.3
2022-12-26T05:22:50.468Z,3.5
2022-12-26T05:24:50.105Z,4.0
2022-12-26T05:26:50.385Z,4.0
2022-12-26T05:28:50.125Z,3.9
2022-12-26T05:30:49.821Z,3.5
2022-12-26T05:32:49.975Z,4.3
2022-12-26T05:34:50.164Z,3.6
2022-12-26T05:36:50.224Z,3.6
2022-12-26T05:38:50.032Z,5.1
2022-12-26T05:40:49.790Z,3.9
2022-12-26T05:42:50.422Z,4.0
2022-12-26T05:44:50.293Z,4.0
2022-12-26T05:46:50.185Z,4.0
2022-12-26T05:48:50.486Z,4.2
2022-12-26T05:50:50.314Z,3.5
2022-12-26T05:52:50.095Z,3.3
2022-12-26T05:54:49.735Z,4.5
2022-12-26T05:56:49.807Z,4.5
2022-12-26T05:58:50.318Z,3.4
2022-12-26T06:00:49.969Z,3.3
2022-12-26T06:02:49.711Z,3.5
2022-12-26T06:04:49.804Z,3.3
2022-12-26T06:06:49.835Z,3.3
2022-12-26T06:08:50.454Z,3.7
2022-12-26T06:10:50.266Z,3.5
2022-12-26T06:12:49.837Z,3.3
2022-12-26T06:14:49.666Z,3.3
2022-12-26T06:16:49.757Z,3.3
2022-12-26T06:18:49.766Z,3.6
2022-12-26T06:20:50.513Z,3.6
2022-12-26T06:22:50.131Z,3.4
2022-12-26T06:24:49.939Z,3.4
2022-12-26T06:26:49.950Z,3.3
2022-12-26T06:28:49.764Z,3.3
2022-12-26T06:30:49.554Z,3.6
2022-12-26T06:32:50.172Z,4.0
2022-12-26T06:34:50.425Z,4.0
2022-12-26T06:36:50.389Z,3.4
2022-12-26T06:38:50.062Z,3.8
2022-12-26T06:40:49.652Z,3.5
2022-12-26T06:42:50.241Z,3.5
2022-12-26T06:44:49.881Z,3.9
2022-12-26T06:46:49.919Z,3.2
2022-12-26T06:48:49.902Z,3.6
2022-12-26T06:50:50.543Z,3.8
2022-12-26T06:52:50.130Z,3.4
2022-12-26T06:54:49.960Z,3.4
2022-12-26T06:56:50.182Z,4.4
2022-12-26T06:58:49.795Z,4.0
2022-12-26T07:00:49.650Z,5.0
2022-12-26T07:02:49.773Z,4.0
2022-12-26T07:04:50.031Z,4.0
2022-12-26T07:06:50.061Z,4.0
2022-12-26T07:08:49.850Z,3.6
2022-12-26T07:10:50.467Z,4.4
2022-12-26T07:12:50.130Z,5.1
2022-12-26T07:14:49.905Z,5.1
2022-12-26T07:16:49.999Z,3.2
2022-12-26T07:18:49.938Z,4.3
2022-12-26T07:20:50.554Z,4.3
2022-12-26T07:22:50.186Z,4.3
2022-12-26T07:24:49.762Z,5.0
2022-12-26T07:26:49.898Z,5.0
2022-12-26T07:28:49.608Z,3.5
2022-12-26T07:30:50.442Z,3.4
2022-12-26T07:32:50.219Z,3.4
2022-12-26T07:34:50.270Z,4.0
2022-12-26T07:36:50.266Z,3.6
2022-12-26T07:38:49.868Z,3.6
2022-12-26T07:40:50.521Z,3.6
2022-12-26T07:42:50.102Z,3.6
2022-12-26T07:44:49.739Z,3.4
2022-12-26T07:46:49.749Z,3.5
2022-12-26T07:48:50.522Z,3.4
2022-12-26T07:50:50.369Z,3.5
2022-12-26T07:52:49.983Z,3.5
2022-12-26T07:54:49.601Z,3.2
2022-12-26T07:56:49.609Z,3.4
2022-12-26T07:58:50.425Z,3.3
2022-12-26T08:00:50.297Z,3.5
2022-12-26T08:02:50.339Z,3.5
2022-12-26T08:04:50.307Z,3.5
2022-12-26T08:06:50.286Z,4.8
2022-12-26T08:08:51.281Z,3.3
2022-12-26T08:10:50.338Z,3.3
2022-12-26T08:12:50.159Z,4.2
2022-12-26T08:14:49.717Z,3.9
2022-12-26T08:16:53.298Z,4.5
2022-12-26T08:18:49.766Z,3.6
2022-12-26T08:20:50.385Z,3.7
2022-12-26T08:22:50.192Z,3.7
2022-12-26T08:24:50.126Z,4.4
2022-12-26T08:26:50.269Z,3.4
2022-12-26T08:28:50.040Z,4.2
2022-12-26T08:30:49.688Z,4.2
2022-12-26T08:32:50.431Z,3.9
2022-12-26T08:34:49.904Z,3.4
2022-12-26T08:36:49.909Z,3.2
2022-12-26T08:38:50.504Z,3.5
2022-12-26T08:40:50.318Z,3.5
2022-12-26T08:43:03.289Z,3.4
2022-12-26T08:44:49.998Z,3.6
2022-12-26T08:46:50.031Z,3.1
2022-12-26T08:48:49.695Z,3.4
2022-12-26T08:50:50.360Z,3.4
2022-12-26T08:52:50.230Z,3.9
2022-12-26T08:54:50.005Z,4.0
2022-12-26T08:56:49.841Z,3.7
2022-12-26T08:58:50.433Z,3.7
2022-12-26T09:00:54.995Z,4.2
2022-12-26T09:02:50.307Z,3.9
2022-12-26T09:04:50.305Z,4.4
2022-12-26T09:06:50.548Z,3.9
2022-12-26T09:08:50.365Z,3.9
2022-12-26T09:10:49.926Z,3.9
2022-12-26T09:12:50.534Z,3.9
2022-12-26T09:14:50.395Z,3.8
2022-12-26T09:16:50.677Z,3.8
2022-12-26T09:18:50.198Z,3.8
2022-12-26T09:20:50.031Z,3.8
2022-12-26T09:22:49.611Z,3.5
2022-12-26T09:24:50.426Z,3.5
2022-12-26T09:26:50.243Z,3.5
2022-12-26T09:28:49.889Z,3.4
2022-12-26T09:30:49.696Z,3.1
2022-12-26T09:32:50.504Z,5.3
2022-12-26T09:34:49.935Z,3.7
2022-12-26T09:36:50.141Z,3.3
2022-12-26T09:38:49.954Z,3.3
2022-12-26T09:40:49.758Z,3.5
2022-12-26T09:42:50.360Z,3.6
2022-12-26T09:44:50.204Z,4.0
2022-12-26T09:46:50.437Z,4.0
2022-12-26T09:48:50.249Z,3.4
2022-12-26T09:50:49.829Z,3.4
2022-12-26T09:52:50.570Z,4.2
2022-12-26T09:54:50.269Z,4.2
2022-12-26T09:57:02.123Z,4.2
2022-12-26T09:58:49.866Z,4.6
2022-12-26T10:00:50.499Z,4.7
2022-12-26T10:02:50.306Z,6.1
2022-12-26T10:04:49.610Z,6.1
2022-12-26T10:06:49.995Z,4.1
2022-12-26T10:08:49.568Z,4.1
2022-12-26T10:10:50.375Z,4.6
2022-12-26T10:12:49.985Z,4.2
2022-12-26T10:14:49.800Z,4.4
2022-12-26T10:16:49.825Z,4.4
2022-12-26T10:18:49.657Z,5.3
2022-12-26T10:20:50.450Z,5.6
2022-12-26T10:22:50.082Z,4.7
2022-12-26T10:24:50.261Z,4.7
2022-12-26T10:26:49.697Z,4.4
2022-12-26T10:28:50.510Z,6.3
2022-12-26T10:30:50.088Z,4.6
2022-12-26T10:32:50.155Z,4.6
2022-12-26T10:34:50.359Z,4.2
2022-12-26T10:36:50.387Z,4.6
2022-12-26T10:38:49.983Z,5.1
2022-12-26T10:40:49.796Z,4.7
2022-12-26T10:42:49.582Z,4.7
2022-12-26T10:44:50.253Z,4.5
2022-12-26T10:46:50.333Z,4.5
2022-12-26T10:48:50.290Z,4.9
2022-12-26T10:50:49.877Z,6.2
2022-12-26T10:52:49.669Z,4.9
2022-12-26T10:54:49.686Z,4.9
2022-12-26T10:56:49.711Z,5.0
2022-12-26T10:58:50.523Z,6.3
2022-12-26T11:00:50.323Z,6.3
2022-12-26T11:02:50.235Z,5.8
2022-12-26T11:05:13.468Z,5.8
2022-12-26T11:06:50.351Z,5.5
2022-12-26T11:08:50.234Z,6.3
2022-12-26T11:10:50.025Z,6.5
2022-12-26T11:12:49.607Z,5.7
2022-12-26T11:14:50.264Z,5.7
2022-12-26T11:16:50.260Z,5.4
2022-12-26T11:18:50.083Z,5.0
2022-12-26T11:20:49.870Z,4.5
2022-12-26T11:22:50.519Z,4.5
2022-12-26T11:24:50.306Z,4.5
2022-12-26T11:26:50.322Z,4.8
2022-12-26T11:28:49.948Z,3.3
2022-12-26T11:30:49.549Z,3.1
2022-12-26T11:32:50.369Z,3.1
2022-12-26T11:34:49.612Z,3.2
2022-12-26T11:36:49.806Z,2.9
2022-12-26T11:38:49.608Z,3.2
2022-12-26T11:40:50.443Z,3.0
2022-12-26T11:42:50.215Z,3.0
2022-12-26T11:44:49.878Z,3.0
2022-12-26T11:46:49.983Z,3.3
2022-12-26T11:48:49.930Z,3.3
2022-12-26T11:50:49.703Z,3.2
2022-12-26T11:52:50.499Z,2.9
2022-12-26T11:54:50.168Z,3.2
2022-12-26T11:56:50.524Z,3.1
2022-12-26T11:58:50.129Z,3.1
2022-12-26T12:00:49.797Z,3.0
2022-12-26T12:02:49.824Z,3.0
2022-12-26T12:04:50.138Z,2.9
2022-12-26T12:06:50.225Z,3.6
2022-12-26T12:08:50.059Z,2.9
2022-12-26T12:10:49.883Z,2.9
2022-12-26T12:12:49.658Z,4.1
2022-12-26T12:14:54.481Z,2.9
2022-12-26T12:16:50.427Z,2.6
2022-12-26T12:18:50.293Z,2.6
2022-12-26T12:20:51.934Z,2.6
2022-12-26T12:22:49.939Z,2.7
2022-12-26T12:24:49.748Z,2.7
2022-12-26T12:26:54.950Z,2.6
2022-12-26T12:28:50.004Z,2.6
2022-12-26T12:30:49.790Z,2.7
2022-12-26T12:32:55.315Z,2.6
2022-12-26T12:34:49.688Z,3.2
2022-12-26T12:36:49.819Z,2.8
2022-12-26T12:38:54.838Z,2.8
2022-12-26T12:40:50.470Z,2.8
2022-12-26T12:42:50.278Z,3.1
2022-12-26T12:44:54.106Z,2.9
2022-12-26T12:46:49.947Z,2.9
2022-12-26T12:48:49.737Z,2.3
2022-12-26T12:50:54.718Z,2.3
2022-12-26T12:52:50.560Z,2.5
2022-12-26T12:54:50.443Z,2.1
2022-12-26T12:56:50.356Z,2.3
2022-12-26T12:58:50.221Z,2.2
2022-12-26T13:00:50.247Z,2.2
2022-12-26T13:02:50.392Z,2.1
2022-12-26T13:04:50.040Z,2.1
2022-12-26T13:06:50.056Z,2.1
2022-12-26T13:08:49.878Z,2.1
2022-12-26T13:10:49.675Z,2.0
2022-12-26T13:12:50.494Z,2.0
2022-12-26T13:14:50.298Z,2.1
2022-12-26T13:16:50.588Z,2.1
2022-12-26T13:18:50.524Z,2.1
2022-12-26T13:20:50.139Z,2.3
2022-12-26T13:22:49.977Z,2.0
2022-12-26T13:24:49.565Z,1.8
2022-12-26T13:26:49.600Z,2.0
2022-12-26T13:28:50.222Z,2.0
2022-12-26T13:30:49.835Z,1.9
2022-12-26T13:32:50.414Z,1.9
2022-12-26T13:34:50.487Z,2.2
2022-12-26T13:36:50.323Z,1.7
2022-12-26T13:38:54.073Z,1.7
2022-12-26T13:40:50.068Z,1.9
2022-12-26T13:42:49.722Z,1.9
2022-12-26T13:44:53.283Z,2.0
2022-12-26T13:46:49.981Z,2.2
2022-12-26T13:48:49.750Z,2.2
2022-12-26T13:50:55.516Z,2.1
2022-12-26T13:52:50.372Z,2.3
2022-12-26T13:54:50.001Z,2.1
2022-12-26T13:56:50.251Z,3.8
2022-12-26T13:58:50.053Z,3.8
2022-12-26T14:00:49.894Z,2.4
2022-12-26T14:03:16.468Z,2.6
2022-12-26T14:04:49.679Z,3.1
2022-12-26T14:06:49.875Z,2.8
2022-12-26T14:08:54.668Z,2.8
2022-12-26T14:10:50.117Z,2.4
2022-12-26T14:12:49.708Z,2.5
2022-12-26T14:14:54.159Z,2.7
2022-12-26T14:16:50.033Z,2.7
2022-12-26T14:18:49.758Z,2.7
2022-12-26T14:20:50.369Z,3.0
2022-12-26T14:22:50.060Z,3.0
2022-12-26T14:24:49.878Z,2.8
2022-12-26T14:26:49.654Z,3.5
2022-12-26T14:28:50.231Z,2.9
2022-12-26T14:30:50.085Z,2.3
2022-12-26T14:32:49.888Z,2.4
2022-12-26T14:34:50.298Z,2.4
2022-12-26T14:36:50.319Z,2.4
2022-12-26T14:38:49.921Z,2.6
2022-12-26T14:40:50.523Z,2.0
2022-12-26T14:42:50.163Z,2.3
2022-12-26T14:44:49.778Z,2.1
2022-12-26T14:46:50.041Z,2.1
2022-12-26T14:48:49.795Z,2.0
2022-12-26T14:50:49.607Z,2.3
2022-12-26T14:52:50.201Z,2.4
2022-12-26T14:54:51.413Z,2.4
2022-12-26T14:56:49.801Z,2.4
2022-12-26T14:58:49.867Z,2.2
2022-12-26T15:00:50.368Z,2.0
2022-12-26T15:02:50.181Z,2.6
2022-12-26T15:04:50.317Z,2.6
2022-12-26T15:06:50.548Z,2.1
2022-12-26T15:08:50.131Z,2.1
2022-12-26T15:10:49.961Z,1.9
2022-12-26T15:12:52.489Z,2.1
2022-12-26T15:14:49.995Z,2.1
2022-12-26T15:16:50.219Z,1.9
2022-12-26T15:18:49.816Z,2.2
2022-12-26T15:20:50.413Z,2.3
2022-12-26T15:22:50.044Z,2.3
2022-12-26T15:25:17.925Z,2.4
2022-12-26T15:26:49.962Z,2.2
2022-12-26T15:28:49.702Z,2.2
2022-12-26T15:30:50.517Z,2.4
2022-12-26T15:32:50.490Z,2.6
2022-12-26T15:34:49.708Z,2.6
2022-12-26T15:36:49.750Z,2.7
2022-12-26T15:38:50.333Z,2.6
2022-12-26T15:40:49.981Z,2.4
2022-12-26T15:42:49.651Z,2.5
2022-12-26T15:44:50.237Z,2.5
2022-12-26T15:46:50.223Z,2.9
2022-12-26T15:48:49.834Z,3.3
2022-12-26T15:50:50.439Z,2.5
2022-12-26T15:52:50.041Z,2.5
2022-12-26T15:54:49.669Z,3.2
2022-12-26T15:56:49.891Z,2.4
2022-12-26T15:58:50.483Z,2.3
2022-12-26T16:00:50.086Z,2.3
2022-12-26T16:02:49.769Z,2.3
2022-12-26T16:04:50.357Z,2.1
2022-12-26T16:06:49.560Z,2.0
2022-12-26T16:08:50.380Z,2.2
2022-12-26T16:10:52.663Z,2.1
2022-12-26T16:12:49.632Z,2.1
2022-12-26T16:14:50.420Z,2.2
2022-12-26T16:16:50.532Z,2.1
2022-12-26T16:18:50.227Z,2.1
2022-12-26T16:20:49.886Z,2.1
2022-12-26T16:22:49.669Z,2.3
2022-12-26T16:24:50.476Z,2.4
2022-12-26T16:26:50.474Z,2.4
2022-12-26T16:28:50.116Z,2.4
2022-12-26T16:30:49.734Z,2.2
2022-12-26T16:32:49.742Z,2.3
2022-12-26T16:34:49.960Z,2.3
2022-12-26T16:36:49.964Z,2.6
2022-12-26T16:38:49.804Z,2.6
2022-12-26T16:40:49.596Z,2.4
2022-12-26T16:42:50.197Z,2.2
2022-12-26T16:44:49.832Z,2.1
2022-12-26T16:46:49.910Z,2.1
2022-12-26T16:48:50.251Z,2.1
2022-12-26T16:50:49.889Z,2.1
2022-12-26T16:52:49.681Z,2.3
2022-12-26T16:54:50.273Z,2.2
2022-12-26T16:56:50.351Z,2.9
2022-12-26T16:58:50.139Z,2.3
2022-12-26T17:00:49.946Z,2.3
2022-12-26T17:02:49.853Z,2.3
2022-12-26T17:04:52.146Z,2.6
2022-12-26T17:06:49.606Z,2.6
2022-12-26T17:08:50.216Z,2.6
2022-12-26T17:10:50.017Z,2.6
2022-12-26T17:12:49.653Z,2.5
2022-12-26T17:14:50.463Z,2.6
2022-12-26T17:16:50.240Z,2.7
2022-12-26T17:18:50.078Z,2.6
2022-12-26T17:20:49.905Z,2.6
2022-12-26T17:22:49.708Z,2.5
2022-12-26T17:24:50.695Z,2.9
2022-12-26T17:26:49.927Z,3.0
2022-12-26T17:28:49.748Z,3.0
2022-12-26T17:30:49.557Z,3.0
2022-12-26T17:32:50.167Z,3.0
2022-12-26T17:34:49.615Z,2.7
2022-12-26T17:37:18.792Z,2.7
2022-12-26T17:38:50.299Z,3.2
2022-12-26T17:40:50.073Z,3.2
2022-12-26T17:42:49.853Z,3.3
2022-12-26T17:44:49.653Z,3.3
2022-12-26T17:46:49.949Z,3.2
2022-12-26T17:48:49.669Z,3.2
2022-12-26T17:50:50.301Z,3.0
2022-12-26T17:52:50.295Z,3.0
2022-12-26T17:54:49.929Z,3.1
2022-12-26T17:56:49.898Z,3.1
2022-12-26T17:58:49.570Z,3.3
2022-12-26T18:00:50.518Z,4.0
2022-12-26T18:02:50.494Z,3.4
2022-12-26T18:04:50.489Z,3.2
2022-12-26T18:06:49.643Z,3.2
2022-12-26T18:08:50.539Z,3.5
2022-12-26T18:10:50.331Z,3.5
2022-12-26T18:12:50.100Z,3.4
2022-12-26T18:14:49.683Z,3.2
2022-12-26T18:16:50.560Z,3.2
2022-12-26T18:18:50.303Z,3.0
2022-12-26T18:20:49.991Z,3.1
2022-12-26T18:22:49.932Z,3.3
2022-12-26T18:24:49.561Z,3.3
2022-12-26T18:26:49.600Z,3.4
2022-12-26T18:28:50.239Z,3.4
2022-12-26T18:30:50.020Z,3.2
2022-12-26T18:32:49.720Z,3.2
2022-12-26T18:34:49.871Z,3.0
2022-12-26T18:36:49.836Z,3.0
2022-12-26T18:38:50.427Z,2.9
2022-12-26T18:40:50.088Z,2.8
2022-12-26T18:42:49.754Z,3.2
2022-12-26T18:44:50.495Z,3.5
2022-12-26T18:46:50.290Z,3.5
2022-12-26T18:48:50.158Z,2.7
2022-12-26T18:50:50.276Z,3.0
2022-12-26T18:52:53.701Z,2.9
2022-12-26T18:54:49.823Z,2.9
2022-12-26T18:56:49.775Z,6.2
2022-12-26T18:58:55.739Z,1.0
2022-12-26T19:00:49.834Z,0.7
2022-12-26T19:02:49.649Z,0.7
2022-12-26T19:04:49.648Z,0.7
2022-12-26T19:06:49.693Z,0.8
2022-12-26T19:08:50.271Z,0.7
2022-12-26T19:10:50.083Z,0.8
2022-12-26T19:12:49.757Z,0.8
2022-12-26T19:14:50.445Z,0.7
2022-12-26T19:16:50.555Z,0.7
2022-12-26T19:18:50.546Z,0.7
2022-12-26T19:20:50.240Z,0.7
2022-12-26T19:22:50.012Z,0.7
2022-12-26T19:24:49.898Z,0.7
2022-12-26T19:26:49.788Z,0.7
2022-12-26T19:28:50.431Z,1.0
2022-12-26T19:30:50.037Z,1.0
2022-12-26T19:32:49.640Z,0.6
2022-12-26T19:34:49.870Z,0.6
2022-12-26T19:36:49.863Z,0.7
2022-12-26T19:38:50.496Z,0.7
2022-12-26T19:40:50.094Z,0.7
2022-12-26T19:42:49.756Z,0.7
2022-12-26T19:44:50.315Z,0.7
2022-12-26T19:46:50.161Z,0.7
2022-12-26T19:48:49.881Z,0.7
2022-12-26T19:50:49.652Z,0.7
2022-12-26T19:52:50.436Z,0.7
2022-12-26T19:54:50.215Z,0.7
2022-12-26T19:56:50.370Z,0.8
2022-12-26T19:58:54.641Z,0.8
2022-12-26T20:00:49.829Z,0.7
2022-12-26T20:02:49.999Z,0.7
2022-12-26T20:04:49.986Z,0.7
2022-12-26T20:06:50.000Z,0.7
2022-12-26T20:08:49.703Z,0.9
2022-12-26T20:10:49.645Z,0.9
2022-12-26T20:12:50.357Z,0.7
2022-12-26T20:14:50.162Z,0.7
2022-12-26T20:17:06.525Z,0.7
2022-12-26T20:18:49.582Z,0.8
2022-12-26T20:20:50.265Z,0.8
2022-12-26T20:22:53.112Z,0.7
2022-12-26T20:24:50.116Z,0.7
2022-12-26T20:26:50.212Z,0.8
2022-12-26T20:28:50.015Z,0.7
2022-12-26T20:30:49.714Z,0.7
2022-12-26T20:32:50.474Z,0.8
2022-12-26T20:34:49.797Z,0.7
2022-12-26T20:36:49.909Z,0.8
2022-12-26T20:38:49.712Z,0.8
2022-12-26T20:40:50.492Z,0.7
2022-12-26T20:42:50.174Z,0.7
2022-12-26T20:44:49.781Z,0.8
2022-12-26T20:46:49.825Z,0.8
2022-12-26T20:48:50.389Z,0.8
2022-12-26T20:50:49.998Z,0.8
2022-12-26T20:52:49.633Z,0.6
2022-12-26T20:54:50.291Z,0.7
2022-12-26T20:56:50.472Z,0.7
2022-12-26T20:58:50.070Z,0.6
2022-12-26T21:00:49.805Z,0.6
2022-12-26T21:02:50.605Z,0.8
2022-12-26T21:04:49.932Z,0.7
2022-12-26T21:06:50.168Z,0.7
2022-12-26T21:08:50.023Z,0.7
2022-12-26T21:10:50.586Z,0.7
2022-12-26T21:12:50.150Z,0.8
2022-12-26T21:14:49.882Z,0.8
2022-12-26T21:16:49.635Z,0.7
2022-12-26T21:18:49.604Z,0.7
2022-12-26T21:20:50.213Z,0.7
2022-12-26T21:22:49.903Z,0.7
2022-12-26T21:24:50.466Z,0.7
2022-12-26T21:26:50.444Z,0.7
2022-12-26T21:28:50.228Z,0.7
2022-12-26T21:30:50.206Z,0.7
2022-12-26T21:32:50.114Z,0.7
2022-12-26T21:34:50.375Z,0.7
2022-12-26T21:36:50.451Z,0.7
2022-12-26T21:38:50.285Z,0.8
2022-12-26T21:40:50.046Z,0.7
2022-12-26T21:42:49.865Z,0.8
2022-12-26T21:44:50.397Z,0.8
2022-12-26T21:46:50.449Z,0.8
2022-12-26T21:48:50.441Z,0.8
2022-12-26T21:50:50.024Z,0.8
2022-12-26T21:52:49.669Z,0.8
2022-12-26T21:54:50.477Z,0.7
2022-12-26T21:56:50.485Z,0.7
2022-12-26T21:58:50.300Z,0.7
2022-12-26T22:00:50.145Z,0.8
2022-12-26T22:02:50.102Z,0.8
2022-12-26T22:04:49.984Z,0.8
2022-12-26T22:06:49.978Z,0.8
2022-12-26T22:08:49.569Z,0.8
2022-12-26T22:10:50.189Z,0.7
2022-12-26T22:12:50.049Z,0.8
2022-12-26T22:14:49.607Z,0.8
2022-12-26T22:16:49.640Z,0.8
2022-12-26T22:18:50.265Z,0.8
2022-12-26T22:20:49.906Z,0.8
2022-12-26T22:22:49.707Z,0.8
2022-12-26T22:24:50.507Z,0.8
2022-12-26T22:26:50.281Z,0.8
2022-12-26T22:28:49.924Z,0.8
2022-12-26T22:30:49.749Z,0.7
2022-12-26T22:32:49.749Z,0.8
2022-12-26T22:34:49.774Z,0.8
2022-12-26T22:36:49.801Z,0.8
2022-12-26T22:38:49.627Z,0.8
2022-12-26T22:40:50.417Z,0.8
2022-12-26T22:42:50.252Z,0.8
2022-12-26T22:44:50.039Z,0.8
2022-12-26T22:46:50.103Z,0.7
2022-12-26T22:48:50.058Z,0.7
2022-12-26T22:50:49.687Z,0.8
2022-12-26T22:52:50.316Z,1.0
2022-12-26T22:54:50.152Z,1.0
2022-12-26T22:56:50.339Z,0.7
2022-12-26T22:58:49.962Z,0.7
2022-12-26T23:00:49.774Z,0.7
2022-12-26T23:02:49.691Z,0.7
2022-12-26T23:04:50.402Z,0.7
2022-12-26T23:06:50.384Z,0.7
2022-12-26T23:08:50.040Z,0.7
2022-12-26T23:10:49.614Z,0.7
2022-12-26T23:12:50.386Z,0.7
2022-12-26T23:14:50.029Z,0.8
2022-12-26T23:16:50.072Z,0.7
2022-12-26T23:18:49.681Z,0.8
2022-12-26T23:20:50.494Z,0.8
2022-12-26T23:22:50.117Z,0.8
2022-12-26T23:24:49.746Z,0.8
2022-12-26T23:26:49.728Z,0.8
2022-12-26T23:28:50.537Z,0.8
2022-12-26T23:30:50.054Z,0.8
2022-12-26T23:32:49.807Z,0.8
2022-12-26T23:34:49.808Z,0.8
2022-12-26T23:36:49.822Z,0.8
2022-12-26T23:38:50.506Z,0.8
2022-12-26T23:40:50.258Z,0.8
2022-12-26T23:42:49.890Z,0.8
2022-12-26T23:44:49.675Z,0.9
2022-12-26T23:46:50.028Z,0.8
2022-12-26T23:48:50.295Z,0.8
2022-12-26T23:50:49.919Z,0.8
2022-12-26T23:52:50.539Z,0.8
2022-12-26T23:54:50.147Z,0.8
2022-12-26T23:56:50.166Z,0.8
2022-12-26T23:58:49.995Z,0.8
